createdAt,value
2018-03-14T00:00:47.314Z,0.00
2018-03-14T00:01:47.306Z,0.00
2018-03-14T00:02:47.284Z,0.00
2018-03-14T00:03:47.265Z,0.00
2018-03-14T00:04:47.260Z,0.00
2018-03-14T00:05:47.230Z,0.00
2018-03-14T00:06:47.224Z,0.00
2018-03-14T00:07:47.200Z,0.00
2018-03-14T00:08:47.186Z,0.00
2018-03-14T00:09:47.218Z,0.00
2018-03-14T00:10:47.138Z,0.00
2018-03-14T00:11:47.122Z,0.00
2018-03-14T00:12:47.102Z,0.00
2018-03-14T00:13:47.098Z,0.00
2018-03-14T00:14:48.055Z,0.00
2018-03-14T00:15:47.091Z,0.00
2018-03-14T00:16:47.040Z,0.00
2018-03-14T00:17:47.023Z,0.00
2018-03-14T00:18:47.002Z,0.00
2018-03-14T00:19:46.992Z,0.00
2018-03-14T00:20:47.023Z,0.00
2018-03-14T00:21:46.960Z,0.00
2018-03-14T00:22:46.951Z,0.00
2018-03-14T00:23:46.923Z,0.00
2018-03-14T00:24:46.903Z,0.00
2018-03-14T00:25:46.883Z,0.00
2018-03-14T00:26:46.871Z,0.00
2018-03-14T00:27:46.854Z,0.00
2018-03-14T00:28:46.834Z,0.00
2018-03-14T00:29:46.822Z,0.00
2018-03-14T00:30:46.811Z,0.00
2018-03-14T00:31:46.844Z,0.00
2018-03-14T00:32:46.765Z,0.00
2018-03-14T00:33:46.753Z,0.00
2018-03-14T00:34:46.733Z,0.00
2018-03-14T00:35:46.720Z,0.00
2018-03-14T00:36:46.710Z,0.00
2018-03-14T00:37:46.741Z,0.00
2018-03-14T00:38:46.669Z,0.00
2018-03-14T00:39:46.655Z,0.00
2018-03-14T00:40:46.630Z,0.00
2018-03-14T00:41:46.620Z,0.00
2018-03-14T00:42:46.606Z,0.00
2018-03-14T00:43:46.585Z,0.00
2018-03-14T00:44:46.862Z,0.00
2018-03-14T00:45:46.540Z,0.00
2018-03-14T00:46:46.534Z,0.00
2018-03-14T00:47:46.510Z,0.00
2018-03-14T00:48:46.496Z,0.00
2018-03-14T00:49:46.482Z,0.00
2018-03-14T00:50:46.472Z,0.00
2018-03-14T00:51:46.469Z,0.00
2018-03-14T00:52:46.427Z,0.00
2018-03-14T00:53:46.403Z,0.00
2018-03-14T00:54:46.391Z,0.00
2018-03-14T00:55:46.387Z,0.00
2018-03-14T00:56:46.361Z,0.00
2018-03-14T00:57:46.379Z,0.00
2018-03-14T00:58:46.326Z,0.00
2018-03-14T00:59:46.311Z,0.00
2018-03-14T01:00:46.299Z,0.00
2018-03-14T01:01:46.344Z,0.00
2018-03-14T01:02:46.255Z,0.00
2018-03-14T01:03:46.237Z,0.00
2018-03-14T01:04:46.229Z,0.00
2018-03-14T01:05:46.206Z,0.00
2018-03-14T01:06:46.189Z,0.00
2018-03-14T01:07:46.211Z,0.00
2018-03-14T01:08:46.157Z,0.00
2018-03-14T01:09:46.139Z,0.00
2018-03-14T01:10:46.124Z,0.00
2018-03-14T01:11:46.099Z,0.00
2018-03-14T01:12:46.124Z,0.00
2018-03-14T01:13:46.072Z,0.00
2018-03-14T01:14:46.060Z,0.00
2018-03-14T01:15:46.040Z,0.00
2018-03-14T01:16:46.024Z,0.00
2018-03-14T01:17:46.044Z,0.00
2018-03-14T01:18:46.012Z,0.00
2018-03-14T01:19:45.967Z,0.00
2018-03-14T01:20:45.952Z,0.00
2018-03-14T01:21:45.987Z,0.00
2018-03-14T01:22:45.920Z,0.00
2018-03-14T01:23:45.892Z,0.00
2018-03-14T01:24:45.888Z,0.00
2018-03-14T01:25:45.866Z,0.00
2018-03-14T01:26:45.854Z,0.00
2018-03-14T01:27:45.835Z,0.00
2018-03-14T01:28:45.806Z,0.00
2018-03-14T01:29:45.793Z,0.00
2018-03-14T01:30:45.794Z,0.00
2018-03-14T01:31:45.770Z,0.00
2018-03-14T01:32:45.747Z,0.00
2018-03-14T01:33:45.756Z,0.00
2018-03-14T01:34:45.717Z,0.00
2018-03-14T01:35:45.699Z,0.00
2018-03-14T01:36:45.684Z,0.00
2018-03-14T01:37:45.732Z,0.00
2018-03-14T01:38:45.637Z,0.00
2018-03-14T01:39:45.627Z,0.00
2018-03-14T01:40:45.604Z,0.00
2018-03-14T01:41:45.596Z,0.00
2018-03-14T01:42:45.580Z,0.00
2018-03-14T01:43:45.593Z,0.00
2018-03-14T01:44:45.550Z,0.00
2018-03-14T01:45:45.522Z,0.00
2018-03-14T01:46:45.502Z,0.00
2018-03-14T01:47:45.498Z,0.00
2018-03-14T01:48:45.521Z,0.00
2018-03-14T01:49:45.449Z,0.00
2018-03-14T01:50:45.445Z,0.00
2018-03-14T01:51:45.422Z,0.00
2018-03-14T01:52:45.397Z,0.00
2018-03-14T01:53:45.386Z,0.00
2018-03-14T01:54:45.368Z,0.00
2018-03-14T01:55:45.350Z,0.00
2018-03-14T01:56:45.332Z,0.00
2018-03-14T01:57:45.318Z,0.00
2018-03-14T01:58:45.290Z,0.00
2018-03-14T01:59:45.332Z,0.00
2018-03-14T02:00:45.261Z,0.00
2018-03-14T02:01:45.234Z,0.00
2018-03-14T02:02:45.223Z,0.00
2018-03-14T02:03:45.210Z,0.00
2018-03-14T02:04:45.194Z,0.00
2018-03-14T02:05:45.232Z,0.00
2018-03-14T02:06:45.159Z,0.00
2018-03-14T02:07:45.139Z,0.00
2018-03-14T02:08:45.122Z,0.00
2018-03-14T02:09:45.114Z,0.00
2018-03-14T02:10:45.079Z,0.00
2018-03-14T02:11:45.104Z,0.00
2018-03-14T02:12:45.043Z,0.00
2018-03-14T02:13:45.028Z,0.00
2018-03-14T02:14:45.018Z,0.00
2018-03-14T02:15:44.996Z,0.00
2018-03-14T02:16:45.023Z,0.00
2018-03-14T02:17:44.962Z,0.00
2018-03-14T02:18:44.952Z,0.00
2018-03-14T02:19:44.932Z,0.00
2018-03-14T02:20:44.915Z,0.00
2018-03-14T02:21:44.898Z,0.00
2018-03-14T02:22:44.883Z,0.00
2018-03-14T02:23:44.856Z,0.00
2018-03-14T02:24:44.834Z,0.00
2018-03-14T02:25:44.816Z,0.00
2018-03-14T02:26:44.814Z,0.00
2018-03-14T02:27:44.796Z,0.00
2018-03-14T02:28:44.767Z,0.00
2018-03-14T02:29:44.769Z,0.00
2018-03-14T02:30:44.744Z,0.00
2018-03-14T02:31:44.790Z,0.00
2018-03-14T02:32:44.698Z,0.00
2018-03-14T02:33:44.685Z,0.00
2018-03-14T02:34:44.665Z,0.00
2018-03-14T02:35:44.643Z,0.00
2018-03-14T02:36:44.627Z,0.00
2018-03-14T02:37:44.616Z,0.00
2018-03-14T02:38:44.589Z,0.00
2018-03-14T02:39:44.566Z,0.00
2018-03-14T02:40:44.557Z,0.00
2018-03-14T02:41:44.541Z,0.00
2018-03-14T02:42:44.561Z,0.00
2018-03-14T02:43:44.512Z,0.00
2018-03-14T02:44:44.529Z,0.00
2018-03-14T02:45:44.465Z,0.00
2018-03-14T02:46:44.473Z,0.00
2018-03-14T02:47:44.440Z,0.00
2018-03-14T02:48:44.455Z,0.00
2018-03-14T02:49:44.403Z,0.00
2018-03-14T02:50:44.389Z,0.00
2018-03-14T02:51:44.361Z,0.00
2018-03-14T02:52:44.356Z,0.00
2018-03-14T02:53:44.386Z,0.00
2018-03-14T02:54:44.319Z,0.00
2018-03-14T02:55:44.291Z,0.00
2018-03-14T02:56:44.275Z,0.00
2018-03-14T02:57:44.265Z,0.00
2018-03-14T02:58:44.245Z,0.00
2018-03-14T02:59:44.229Z,0.00
2018-03-14T03:00:44.202Z,0.00
2018-03-14T03:01:44.190Z,0.00
2018-03-14T03:02:44.178Z,0.00
2018-03-14T03:03:44.152Z,0.00
2018-03-14T03:04:44.167Z,0.00
2018-03-14T03:05:44.114Z,0.00
2018-03-14T03:06:44.096Z,0.00
2018-03-14T03:07:44.079Z,0.00
2018-03-14T03:08:44.108Z,0.00
2018-03-14T03:09:44.056Z,0.00
2018-03-14T03:10:44.069Z,0.00
2018-03-14T03:11:44.009Z,0.00
2018-03-14T03:12:44.093Z,0.00
2018-03-14T03:13:43.985Z,0.00
2018-03-14T03:14:43.964Z,0.00
2018-03-14T03:15:43.947Z,0.00
2018-03-14T03:16:43.923Z,0.00
2018-03-14T03:17:43.902Z,0.00
2018-03-14T03:18:43.890Z,0.00
2018-03-14T03:19:43.872Z,0.00
2018-03-14T03:20:43.852Z,0.00
2018-03-14T03:21:43.831Z,0.00
2018-03-14T03:22:43.823Z,0.00
2018-03-14T03:23:43.830Z,0.00
2018-03-14T03:24:43.788Z,0.00
2018-03-14T03:25:43.763Z,0.00
2018-03-14T03:26:43.751Z,0.00
2018-03-14T03:27:43.759Z,0.00
2018-03-14T03:28:43.709Z,0.00
2018-03-14T03:29:43.701Z,0.00
2018-03-14T03:30:43.678Z,0.00
2018-03-14T03:31:43.659Z,0.00
2018-03-14T03:32:43.673Z,0.00
2018-03-14T03:33:43.629Z,0.00
2018-03-14T03:34:43.668Z,0.00
2018-03-14T03:35:43.598Z,0.00
2018-03-14T03:36:43.572Z,0.00
2018-03-14T03:37:43.564Z,0.00
2018-03-14T03:38:43.528Z,0.00
2018-03-14T03:39:43.510Z,0.00
2018-03-14T03:40:43.527Z,0.00
2018-03-14T03:41:43.486Z,0.00
2018-03-14T03:42:43.471Z,0.00
2018-03-14T03:43:43.453Z,0.00
2018-03-14T03:44:43.437Z,0.00
2018-03-14T03:45:43.442Z,0.00
2018-03-14T03:46:43.447Z,0.00
2018-03-14T03:47:43.374Z,0.00
2018-03-14T03:48:43.369Z,0.00
2018-03-14T03:49:43.339Z,0.00
2018-03-14T03:50:43.318Z,0.00
2018-03-14T03:51:43.305Z,0.00
2018-03-14T03:52:43.351Z,0.00
2018-03-14T03:53:43.277Z,0.00
2018-03-14T03:54:43.253Z,0.00
2018-03-14T03:55:43.244Z,0.00
2018-03-14T03:56:43.212Z,0.00
2018-03-14T03:57:43.207Z,0.00
2018-03-14T03:58:43.197Z,0.00
2018-03-14T03:59:43.232Z,0.00
2018-03-14T04:00:43.176Z,0.00
2018-03-14T04:01:43.138Z,0.00
2018-03-14T04:02:43.114Z,0.00
2018-03-14T04:03:43.106Z,0.00
2018-03-14T04:04:43.087Z,0.00
2018-03-14T04:05:43.074Z,0.00
2018-03-14T04:06:43.043Z,0.00
2018-03-14T04:07:43.037Z,0.00
2018-03-14T04:08:43.015Z,0.00
2018-03-14T04:09:42.991Z,0.00
2018-03-14T04:10:43.010Z,0.00
2018-03-14T04:11:42.955Z,0.00
2018-03-14T04:12:42.936Z,0.00
2018-03-14T04:13:42.931Z,0.00
2018-03-14T04:14:42.910Z,0.00
2018-03-14T04:15:42.892Z,0.00
2018-03-14T04:16:42.910Z,0.00
2018-03-14T04:17:42.865Z,0.00
2018-03-14T04:18:42.840Z,0.00
2018-03-14T04:19:42.816Z,0.00
2018-03-14T04:20:42.830Z,0.00
2018-03-14T04:21:42.852Z,0.00
2018-03-14T04:22:42.763Z,0.00
2018-03-14T04:23:42.748Z,0.00
2018-03-14T04:24:42.727Z,0.00
2018-03-14T04:25:42.713Z,0.00
2018-03-14T04:26:42.699Z,0.00
2018-03-14T04:27:42.737Z,0.00
2018-03-14T04:28:42.660Z,0.00
2018-03-14T04:29:42.643Z,0.00
2018-03-14T04:30:42.637Z,0.00
2018-03-14T04:31:42.600Z,0.00
2018-03-14T04:32:42.583Z,0.00
2018-03-14T04:33:42.609Z,0.00
2018-03-14T04:34:42.556Z,0.00
2018-03-14T04:35:42.583Z,0.00
2018-03-14T04:36:42.524Z,0.00
2018-03-14T04:37:42.504Z,0.00
2018-03-14T04:38:42.544Z,0.00
2018-03-14T04:39:42.471Z,0.00
2018-03-14T04:40:42.441Z,0.00
2018-03-14T04:41:42.424Z,0.00
2018-03-14T04:42:42.414Z,0.00
2018-03-14T04:43:42.404Z,0.00
2018-03-14T04:44:42.442Z,0.00
2018-03-14T04:45:42.365Z,0.00
2018-03-14T04:46:42.339Z,0.00
2018-03-14T04:47:42.320Z,0.00
2018-03-14T04:48:42.316Z,0.00
2018-03-14T04:49:42.284Z,0.00
2018-03-14T04:50:42.283Z,0.00
2018-03-14T04:51:42.257Z,0.00
2018-03-14T04:52:42.240Z,0.00
2018-03-14T04:53:42.246Z,0.00
2018-03-14T04:54:42.208Z,0.00
2018-03-14T04:55:42.198Z,0.00
2018-03-14T04:56:42.173Z,0.00
2018-03-14T04:57:42.206Z,0.00
2018-03-14T04:58:42.136Z,0.00
2018-03-14T04:59:42.106Z,0.00
2018-03-14T05:00:42.103Z,0.00
2018-03-14T05:01:42.082Z,0.00
2018-03-14T05:02:42.061Z,0.00
2018-03-14T05:03:42.081Z,0.00
2018-03-14T05:04:42.022Z,0.00
2018-03-14T05:05:42.019Z,0.00
2018-03-14T05:06:41.999Z,0.00
2018-03-14T05:07:41.968Z,0.00
2018-03-14T05:08:41.996Z,0.00
2018-03-14T05:09:41.950Z,0.00
2018-03-14T05:10:41.919Z,0.00
2018-03-14T05:11:41.914Z,0.00
2018-03-14T05:12:41.886Z,0.00
2018-03-14T05:13:41.869Z,0.00
2018-03-14T05:14:41.893Z,0.00
2018-03-14T05:15:41.844Z,0.00
2018-03-14T05:16:41.822Z,0.00
2018-03-14T05:17:41.800Z,0.00
2018-03-14T05:18:41.790Z,4.00
2018-03-14T05:19:41.818Z,4.00
2018-03-14T05:20:41.740Z,0.00
2018-03-14T05:21:41.724Z,0.00
2018-03-14T05:22:41.706Z,4.00
2018-03-14T05:23:41.692Z,4.00
2018-03-14T05:24:41.677Z,8.00
2018-03-14T05:25:41.692Z,4.00
2018-03-14T05:26:41.704Z,8.00
2018-03-14T05:27:41.628Z,12.00
2018-03-14T05:28:41.604Z,12.00
2018-03-14T05:29:41.583Z,16.00
2018-03-14T05:30:41.627Z,16.00
2018-03-14T05:31:41.550Z,20.00
2018-03-14T05:32:41.544Z,20.00
2018-03-14T05:33:41.520Z,24.00
2018-03-14T05:34:41.511Z,24.00
2018-03-14T05:35:41.479Z,28.00
2018-03-14T05:36:41.533Z,36.00
2018-03-14T05:37:41.444Z,40.00
2018-03-14T05:38:41.428Z,44.00
2018-03-14T05:39:41.414Z,52.00
2018-03-14T05:40:41.393Z,52.00
2018-03-14T05:41:41.380Z,60.00
2018-03-14T05:42:41.412Z,68.00
2018-03-14T05:43:41.350Z,76.00
2018-03-14T05:44:41.336Z,84.00
2018-03-14T05:45:41.313Z,96.00
2018-03-14T05:46:41.301Z,108.00
2018-03-14T05:47:41.277Z,120.00
2018-03-14T05:48:41.313Z,128.00
2018-03-14T05:49:41.245Z,140.00
2018-03-14T05:50:41.225Z,144.00
2018-03-14T05:51:41.210Z,148.00
2018-03-14T05:52:41.184Z,156.00
2018-03-14T05:53:41.168Z,164.00
2018-03-14T05:54:41.157Z,168.00
2018-03-14T05:55:41.138Z,180.00
2018-03-14T05:56:41.117Z,196.00
2018-03-14T05:57:41.092Z,216.00
2018-03-14T05:58:41.088Z,236.00
2018-03-14T05:59:41.111Z,256.00
2018-03-14T06:00:41.041Z,272.00
2018-03-14T06:01:41.020Z,288.00
2018-03-14T06:02:41.008Z,300.00
2018-03-14T06:03:41.000Z,316.00
2018-03-14T06:04:41.012Z,324.00
2018-03-14T06:05:41.054Z,336.00
2018-03-14T06:06:40.939Z,352.00
2018-03-14T06:07:40.930Z,368.00
2018-03-14T06:08:40.928Z,388.00
2018-03-14T06:09:40.944Z,404.00
2018-03-14T06:10:40.876Z,428.00
2018-03-14T06:11:40.848Z,444.00
2018-03-14T06:12:40.832Z,468.00
2018-03-14T06:13:40.978Z,492.00
2018-03-14T06:14:40.840Z,520.00
2018-03-14T06:15:40.811Z,536.00
2018-03-14T06:16:40.762Z,552.00
2018-03-14T06:17:40.750Z,560.00
2018-03-14T06:18:40.746Z,568.00
2018-03-14T06:19:40.902Z,572.00
2018-03-14T06:20:41.290Z,584.00
2018-03-14T06:21:40.676Z,604.00
2018-03-14T06:22:40.658Z,612.00
2018-03-14T06:23:40.654Z,620.00
2018-03-14T06:24:40.618Z,628.00
2018-03-14T06:25:40.605Z,636.00
2018-03-14T06:26:40.600Z,636.00
2018-03-14T06:27:40.580Z,644.00
2018-03-14T06:28:40.558Z,652.00
2018-03-14T06:29:40.543Z,656.00
2018-03-14T06:30:40.529Z,668.00
2018-03-14T06:31:40.570Z,688.00
2018-03-14T06:32:40.487Z,736.00
2018-03-14T06:33:40.462Z,796.00
2018-03-14T06:34:40.451Z,864.00
2018-03-14T06:35:40.440Z,916.00
2018-03-14T06:36:40.409Z,948.00
2018-03-14T06:37:40.432Z,988.00
2018-03-14T06:38:40.401Z,1036.00
2018-03-14T06:39:40.361Z,1084.00
2018-03-14T06:40:40.358Z,1136.00
2018-03-14T06:41:40.324Z,1212.00
2018-03-14T06:42:40.360Z,1256.00
2018-03-14T06:43:40.300Z,1292.00
2018-03-14T06:44:40.277Z,1308.00
2018-03-14T06:45:40.263Z,1348.00
2018-03-14T06:46:40.249Z,1380.00
2018-03-14T06:47:40.227Z,1420.00
2018-03-14T06:48:40.223Z,1480.00
2018-03-14T06:49:40.203Z,1532.00
2018-03-14T06:50:40.179Z,1584.00
2018-03-14T06:51:40.153Z,1584.00
2018-03-14T06:52:40.150Z,1572.00
2018-03-14T06:53:40.147Z,1588.00
2018-03-14T06:54:40.160Z,1632.00
2018-03-14T06:55:40.084Z,1704.00
2018-03-14T06:56:40.066Z,1792.00
2018-03-14T06:57:40.054Z,1844.00
2018-03-14T06:58:40.032Z,1836.00
2018-03-14T06:59:40.032Z,1856.00
2018-03-14T07:00:40.033Z,1792.00
2018-03-14T07:01:39.998Z,1780.00
2018-03-14T07:02:39.997Z,1788.00
2018-03-14T07:03:39.947Z,1800.00
2018-03-14T07:04:39.930Z,1784.00
2018-03-14T07:05:40.012Z,1804.00
2018-03-14T07:06:39.906Z,1860.00
2018-03-14T07:07:39.883Z,1896.00
2018-03-14T07:08:39.878Z,1880.00
2018-03-14T07:09:39.849Z,1896.00
2018-03-14T07:10:39.833Z,1908.00
2018-03-14T07:11:39.824Z,1944.00
2018-03-14T07:12:39.795Z,1952.00
2018-03-14T07:13:39.783Z,1944.00
2018-03-14T07:14:39.765Z,1952.00
2018-03-14T07:15:39.745Z,1944.00
2018-03-14T07:16:39.776Z,1960.00
2018-03-14T07:17:39.716Z,1956.00
2018-03-14T07:18:39.698Z,1916.00
2018-03-14T07:19:39.676Z,1876.00
2018-03-14T07:20:39.665Z,1860.00
2018-03-14T07:21:39.656Z,1856.00
2018-03-14T07:22:39.654Z,1864.00
2018-03-14T07:23:39.603Z,1872.00
2018-03-14T07:24:39.586Z,1908.00
2018-03-14T07:25:39.626Z,1952.00
2018-03-14T07:26:39.557Z,1992.00
2018-03-14T07:27:39.541Z,2032.00
2018-03-14T07:28:39.528Z,2092.00
2018-03-14T07:29:39.513Z,2128.00
2018-03-14T07:30:39.494Z,2140.00
2018-03-14T07:31:39.482Z,2140.00
2018-03-14T07:32:39.458Z,2156.00
2018-03-14T07:33:39.442Z,2188.00
2018-03-14T07:34:39.453Z,2228.00
2018-03-14T07:35:39.392Z,2276.00
2018-03-14T07:36:39.388Z,2356.00
2018-03-14T07:37:39.370Z,2424.00
2018-03-14T07:38:39.405Z,2508.00
2018-03-14T07:39:39.343Z,2608.00
2018-03-14T07:40:39.313Z,2712.00
2018-03-14T07:41:39.296Z,2816.00
2018-03-14T07:42:39.285Z,2948.00
2018-03-14T07:43:39.265Z,3048.00
2018-03-14T07:44:39.328Z,3088.00
2018-03-14T07:45:39.221Z,3084.00
2018-03-14T07:46:39.218Z,3056.00
2018-03-14T07:47:39.188Z,3008.00
2018-03-14T07:48:39.188Z,2980.00
2018-03-14T07:49:39.166Z,3004.00
2018-03-14T07:50:39.152Z,3036.00
2018-03-14T07:51:39.168Z,3072.00
2018-03-14T07:52:39.162Z,3096.00
2018-03-14T07:53:39.097Z,3136.00
2018-03-14T07:54:39.075Z,3208.00
2018-03-14T07:55:39.084Z,3256.00
2018-03-14T07:56:39.077Z,3292.00
2018-03-14T07:57:39.038Z,3376.00
2018-03-14T07:58:39.019Z,3504.00
2018-03-14T07:59:39.072Z,3632.00
2018-03-14T08:00:38.996Z,3688.00
2018-03-14T08:01:39.088Z,3644.00
2018-03-14T08:02:38.955Z,3540.00
2018-03-14T08:03:38.939Z,3456.00
2018-03-14T08:04:38.918Z,3328.00
2018-03-14T08:05:38.894Z,3164.00
2018-03-14T08:06:38.893Z,3040.00
2018-03-14T08:07:38.866Z,3092.00
2018-03-14T08:08:38.838Z,3200.00
2018-03-14T08:09:38.875Z,3264.00
2018-03-14T08:10:38.813Z,3228.00
2018-03-14T08:11:38.828Z,3176.00
2018-03-14T08:12:38.777Z,3156.00
2018-03-14T08:13:38.877Z,3176.00
2018-03-14T08:14:38.748Z,3236.00
2018-03-14T08:15:38.731Z,3324.00
2018-03-14T08:16:38.729Z,3400.00
2018-03-14T08:17:38.734Z,3452.00
2018-03-14T08:18:38.693Z,3472.00
2018-03-14T08:19:38.682Z,3496.00
2018-03-14T08:20:38.641Z,3552.00
2018-03-14T08:21:38.639Z,3620.00
2018-03-14T08:22:38.622Z,3724.00
2018-03-14T08:23:38.656Z,3852.00
2018-03-14T08:24:38.582Z,3948.00
2018-03-14T08:25:38.568Z,4000.00
2018-03-14T08:26:38.544Z,4044.00
2018-03-14T08:27:38.522Z,4080.00
2018-03-14T08:28:38.530Z,4120.00
2018-03-14T08:29:38.521Z,4184.00
2018-03-14T08:30:38.484Z,4256.00
2018-03-14T08:31:38.462Z,4392.00
2018-03-14T08:32:38.437Z,4496.00
2018-03-14T08:33:38.425Z,4512.00
2018-03-14T08:34:38.439Z,4508.00
2018-03-14T08:35:38.408Z,4436.00
2018-03-14T08:36:38.391Z,4484.00
2018-03-14T08:37:38.356Z,4624.00
2018-03-14T08:38:38.389Z,4836.00
2018-03-14T08:39:38.335Z,5064.00
2018-03-14T08:40:38.317Z,5308.00
2018-03-14T08:41:38.311Z,5464.00
2018-03-14T08:42:38.287Z,5608.00
2018-03-14T08:43:38.275Z,5732.00
2018-03-14T08:44:38.318Z,5856.00
2018-03-14T08:45:38.244Z,5996.00
2018-03-14T08:46:38.218Z,6116.00
2018-03-14T08:47:38.199Z,6176.00
2018-03-14T08:48:38.181Z,6184.00
2018-03-14T08:49:38.164Z,6220.00
2018-03-14T08:50:38.214Z,6248.00
2018-03-14T08:51:38.135Z,6192.00
2018-03-14T08:52:38.126Z,6196.00
2018-03-14T08:53:38.096Z,6164.00
2018-03-14T08:54:38.082Z,6092.00
2018-03-14T08:55:38.062Z,5928.00
2018-03-14T08:56:38.090Z,5776.00
2018-03-14T08:57:38.992Z,5740.00
2018-03-14T08:58:38.018Z,5800.00
2018-03-14T08:59:38.010Z,5872.00
2018-03-14T09:00:37.987Z,6008.00
2018-03-14T09:01:38.299Z,6100.00
2018-03-14T09:02:38.013Z,6052.00
2018-03-14T09:03:37.956Z,6024.00
2018-03-14T09:04:37.932Z,6000.00
2018-03-14T09:05:37.912Z,5968.00
2018-03-14T09:06:37.937Z,5808.00
2018-03-14T09:07:37.869Z,5716.00
2018-03-14T09:08:38.038Z,5604.00
2018-03-14T09:09:37.985Z,5500.00
2018-03-14T09:10:37.867Z,5444.00
2018-03-14T09:11:37.813Z,5284.00
2018-03-14T09:12:37.967Z,5160.00
2018-03-14T09:13:37.783Z,5092.00
2018-03-14T09:14:37.748Z,5096.00
2018-03-14T09:15:37.780Z,5056.00
2018-03-14T09:16:37.721Z,4964.00
2018-03-14T09:17:37.708Z,4856.00
2018-03-14T09:18:37.697Z,4696.00
2018-03-14T09:19:37.691Z,4592.00
2018-03-14T09:20:37.747Z,4560.00
2018-03-14T09:21:37.646Z,4556.00
2018-03-14T09:22:37.646Z,4616.00
2018-03-14T09:23:37.615Z,4704.00
2018-03-14T09:24:37.661Z,4796.00
2018-03-14T09:25:37.577Z,4900.00
2018-03-14T09:26:37.570Z,4996.00
2018-03-14T09:27:37.535Z,5100.00
2018-03-14T09:28:37.536Z,5196.00
2018-03-14T09:29:37.510Z,5316.00
2018-03-14T09:30:37.554Z,5468.00
2018-03-14T09:31:37.476Z,5632.00
2018-03-14T09:32:37.463Z,5820.00
2018-03-14T09:33:37.448Z,6076.00
2018-03-14T09:34:37.442Z,6364.00
2018-03-14T09:35:37.417Z,6620.00
2018-03-14T09:36:37.424Z,6832.00
2018-03-14T09:37:37.390Z,7000.00
2018-03-14T09:38:37.368Z,7196.00
2018-03-14T09:39:37.356Z,7444.00
2018-03-14T09:40:37.351Z,7656.00
2018-03-14T09:41:37.374Z,7808.00
2018-03-14T09:42:37.304Z,7912.00
2018-03-14T09:43:37.347Z,8000.00
2018-03-14T09:44:37.314Z,8120.00
2018-03-14T09:45:37.364Z,8240.00
2018-03-14T09:46:37.247Z,8412.00
2018-03-14T09:47:37.291Z,8604.00
2018-03-14T09:48:37.211Z,8816.00
2018-03-14T09:49:37.200Z,9052.00
2018-03-14T09:50:37.186Z,9388.00
2018-03-14T09:51:37.158Z,9772.00
2018-03-14T09:52:37.144Z,9928.00
2018-03-14T09:53:37.160Z,9724.00
2018-03-14T09:54:37.128Z,9204.00
2018-03-14T09:55:37.107Z,8844.00
2018-03-14T09:56:37.087Z,8572.00
2018-03-14T09:57:37.080Z,8308.00
2018-03-14T09:58:37.079Z,7932.00
2018-03-14T09:59:37.115Z,7676.00
2018-03-14T10:00:37.016Z,7508.00
2018-03-14T10:01:37.004Z,7512.00
2018-03-14T10:02:36.992Z,7676.00
2018-03-14T10:03:36.987Z,8004.00
2018-03-14T10:04:36.963Z,8404.00
2018-03-14T10:05:36.979Z,8824.00
2018-03-14T10:06:36.974Z,9152.00
2018-03-14T10:07:36.911Z,9620.00
2018-03-14T10:08:36.891Z,10260.00
2018-03-14T10:09:36.886Z,10556.00
2018-03-14T10:10:36.907Z,10464.00
2018-03-14T10:11:36.878Z,10268.00
2018-03-14T10:12:36.852Z,9888.00
2018-03-14T10:13:36.830Z,9488.00
2018-03-14T10:14:36.813Z,9232.00
2018-03-14T10:15:36.968Z,9028.00
2018-03-14T10:16:36.775Z,8928.00
2018-03-14T10:17:36.760Z,8876.00
2018-03-14T10:18:36.756Z,8880.00
2018-03-14T10:19:36.734Z,8912.00
2018-03-14T10:20:36.784Z,9112.00
2018-03-14T10:21:36.713Z,9552.00
2018-03-14T10:22:36.684Z,9772.00
2018-03-14T10:23:36.675Z,9736.00
2018-03-14T10:24:36.649Z,9588.00
2018-03-14T10:25:37.641Z,9568.00
2018-03-14T10:26:36.817Z,9628.00
2018-03-14T10:27:40.422Z,9640.00
2018-03-14T10:28:36.600Z,9728.00
2018-03-14T10:29:36.595Z,9936.00
2018-03-14T10:30:36.579Z,9984.00
2018-03-14T10:31:36.600Z,10036.00
2018-03-14T10:32:36.541Z,10108.00
2018-03-14T10:33:36.526Z,10296.00
2018-03-14T10:34:36.516Z,10380.00
2018-03-14T10:35:36.494Z,10552.00
2018-03-14T10:36:36.485Z,10640.00
2018-03-14T10:37:36.535Z,10816.00
2018-03-14T10:38:36.445Z,11080.00
2018-03-14T10:39:36.436Z,11136.00
2018-03-14T10:40:36.428Z,11156.00
2018-03-14T10:41:36.398Z,11092.00
2018-03-14T10:42:36.392Z,11128.00
2018-03-14T10:43:36.374Z,11052.00
2018-03-14T10:44:36.377Z,10764.00
2018-03-14T10:45:36.339Z,9828.00
2018-03-14T10:46:36.332Z,10444.00
2018-03-14T10:47:36.322Z,10312.00
2018-03-14T10:48:36.344Z,10224.00
2018-03-14T10:49:36.288Z,10044.00
2018-03-14T10:50:36.270Z,9820.00
2018-03-14T10:51:36.256Z,9900.00
2018-03-14T10:52:36.243Z,9904.00
2018-03-14T10:53:36.296Z,9912.00
2018-03-14T10:54:36.228Z,9916.00
2018-03-14T10:55:36.208Z,9900.00
2018-03-14T10:56:36.188Z,9968.00
2018-03-14T10:57:36.175Z,10152.00
2018-03-14T10:58:36.198Z,9976.00
2018-03-14T10:59:36.181Z,9696.00
2018-03-14T11:00:36.171Z,9420.00
2018-03-14T11:01:36.182Z,9208.00
2018-03-14T11:02:36.099Z,9260.00
2018-03-14T11:03:36.084Z,9044.00
2018-03-14T11:04:36.083Z,8832.00
2018-03-14T11:05:36.056Z,8900.00
2018-03-14T11:06:36.052Z,9056.00
2018-03-14T11:07:36.065Z,9116.00
2018-03-14T11:08:36.020Z,9160.00
2018-03-14T11:09:36.004Z,9100.00
2018-03-14T11:10:36.049Z,8948.00
2018-03-14T11:11:35.985Z,8692.00
2018-03-14T11:12:35.958Z,8560.00
2018-03-14T11:13:35.950Z,8484.00
2018-03-14T11:14:35.928Z,8536.00
2018-03-14T11:15:35.927Z,8548.00
2018-03-14T11:16:35.951Z,8640.00
2018-03-14T11:17:35.891Z,8716.00
2018-03-14T11:18:35.881Z,8744.00
2018-03-14T11:19:35.854Z,8616.00
2018-03-14T11:20:35.858Z,8472.00
2018-03-14T11:21:35.866Z,8284.00
2018-03-14T11:22:35.816Z,8340.00
2018-03-14T11:23:35.795Z,8524.00
2018-03-14T11:24:35.784Z,8528.00
2018-03-14T11:25:35.844Z,8540.00
2018-03-14T11:26:35.750Z,8708.00
2018-03-14T11:27:35.749Z,8820.00
2018-03-14T11:28:35.722Z,8840.00
2018-03-14T11:29:35.707Z,8832.00
2018-03-14T11:30:35.704Z,9040.00
2018-03-14T11:31:35.708Z,9416.00
2018-03-14T11:32:35.673Z,9792.00
2018-03-14T11:33:35.669Z,10252.00
2018-03-14T11:34:35.661Z,10896.00
2018-03-14T11:35:35.623Z,11528.00
2018-03-14T11:36:35.668Z,11960.00
2018-03-14T11:37:35.603Z,12180.00
2018-03-14T11:38:35.579Z,12324.00
2018-03-14T11:39:35.565Z,11848.00
2018-03-14T11:40:35.591Z,11480.00
2018-03-14T11:41:35.533Z,11300.00
2018-03-14T11:42:35.563Z,11380.00
2018-03-14T11:43:35.511Z,11432.00
2018-03-14T11:44:35.501Z,10768.00
2018-03-14T11:45:35.494Z,9924.00
2018-03-14T11:46:35.463Z,9284.00
2018-03-14T11:47:35.451Z,8868.00
2018-03-14T11:48:35.462Z,8684.00
2018-03-14T11:49:35.521Z,8636.00
2018-03-14T11:50:35.444Z,8780.00
2018-03-14T11:51:35.428Z,8860.00
2018-03-14T11:52:35.390Z,8732.00
2018-03-14T11:53:35.363Z,8560.00
2018-03-14T11:54:35.351Z,8512.00
2018-03-14T11:55:35.336Z,8412.00
2018-03-14T11:56:35.357Z,8448.00
2018-03-14T11:57:35.350Z,8492.00
2018-03-14T11:58:35.305Z,8768.00
2018-03-14T11:59:35.314Z,9312.00
2018-03-14T12:00:35.274Z,9788.00
2018-03-14T12:01:35.256Z,10284.00
2018-03-14T12:02:35.238Z,10908.00
2018-03-14T12:03:35.236Z,11492.00
2018-03-14T12:04:35.261Z,12192.00
2018-03-14T12:05:36.486Z,12948.00
2018-03-14T12:06:35.178Z,13488.00
2018-03-14T12:07:35.177Z,13532.00
2018-03-14T12:08:35.147Z,13408.00
2018-03-14T12:09:35.148Z,13176.00
2018-03-14T12:10:35.273Z,12872.00
2018-03-14T12:11:35.113Z,11952.00
2018-03-14T12:12:35.098Z,11200.00
2018-03-14T12:13:35.077Z,10760.00
2018-03-14T12:14:35.065Z,10700.00
2018-03-14T12:15:35.128Z,10304.00
2018-03-14T12:16:35.047Z,10364.00
2018-03-14T12:17:35.031Z,11288.00
2018-03-14T12:18:35.034Z,11468.00
2018-03-14T12:19:35.056Z,10572.00
2018-03-14T12:20:34.991Z,10208.00
2018-03-14T12:21:35.036Z,9868.00
2018-03-14T12:22:34.961Z,9816.00
2018-03-14T12:23:34.952Z,9796.00
2018-03-14T12:24:34.930Z,9964.00
2018-03-14T12:25:34.919Z,9992.00
2018-03-14T12:26:34.907Z,10368.00
2018-03-14T12:27:34.886Z,10484.00
2018-03-14T12:28:34.868Z,9932.00
2018-03-14T12:29:34.867Z,9176.00
2018-03-14T12:30:34.847Z,8780.00
2018-03-14T12:31:34.835Z,8820.00
2018-03-14T12:32:34.892Z,8816.00
2018-03-14T12:33:34.818Z,8812.00
2018-03-14T12:34:34.798Z,8880.00
2018-03-14T12:35:34.776Z,8744.00
2018-03-14T12:36:34.770Z,8648.00